Time;durP1;ratioP1;P1;durP2;ratioP2;P2;SDS_P1;SDS_P2;PMS_P1;PMS_P2;Temp;Humidity;BMP_temperature;BMP_pressure;BME280_temperature;BME280_humidity;BME280_pressure;Samples;Min_cycle;Max_cycle;Signal;HPM_P1;HPM_P2
2023/04/04 00:01:01;;;;;;;;;;;;;;;6.80;100.00;91982.47;5070627;28;19965;-38
2023/04/04 00:03:26;;;;;;;;;;;;;;;6.98;100.00;91969.53;5070620;28;20468;-38
2023/04/04 00:05:51;;;;;;;;;;;;;;;7.00;100.00;91979.94;5070865;28;20669;-37
2023/04/04 00:08:17;;;;;;;;;;;;;;;6.94;100.00;91980.16;5070589;28;20378;-38
2023/04/04 00:10:42;;;;;;;;;;;;;;;7.01;100.00;91990.38;5070529;28;20330;-37
2023/04/04 00:13:08;;;;;;;;;;;;;;;6.95;100.00;91983.66;5070425;28;19940;-38
2023/04/04 00:15:35;;;;;;;;;;;;;;;6.97;100.00;91987.28;5069369;28;19941;-38
2023/04/04 00:18:01;;;;;;;;;;;;;;;7.01;100.00;91990.38;5070345;28;19939;-38
2023/04/04 00:20:26;;;;;;;;;;;;;;;7.03;100.00;91987.78;5070338;28;19939;-38
2023/04/04 00:22:51;;;;;;;;;;;;;;;7.06;100.00;91983.91;5070256;28;20057;-38
2023/04/04 00:25:17;;;;;;;;;;;;;;;7.09;100.00;91971.81;5070442;28;20313;-37
2023/04/04 00:27:43;;;;;;;;;;;;;;;6.99;100.00;91973.00;5069865;28;20339;-38
2023/04/04 00:30:11;;;;;;;;;;;;;;;6.89;100.00;91981.84;5070161;28;19948;-38
2023/04/04 00:32:36;;;;;;;;;;;;;;;7.06;100.00;91994.88;5069572;28;20415;-37
2023/04/04 00:35:01;;;;;;;;;;;;;;;7.01;100.00;91993.13;5086637;28;19981;-38
2023/04/04 00:37:27;;;;;;;;;;;;;;;6.95;100.00;91989.88;5090029;28;19974;-38
2023/04/04 00:39:52;;;;;;;;;;;;;;;6.93;100.00;91988.97;5090115;28;19931;-38
2023/04/04 00:42:17;;;;;;;;;;;;;;;7.06;100.00;91981.16;5090278;28;20004;-38
2023/04/04 00:44:43;;;;;;;;;;;;;;;7.02;100.00;91972.59;5089109;28;19932;-37
2023/04/04 00:47:08;;;;;;;;;;;;;;;7.07;100.00;91984.63;5090072;28;19983;-38
2023/04/04 00:49:33;;;;;;;;;;;;;;;6.97;100.00;91973.56;5089985;28;20045;-38
2023/04/04 00:51:58;;;;;;;;;;;;;;;7.06;100.00;91978.41;5090249;28;20412;-38
2023/04/04 00:54:24;;;;;;;;;;;;;;;7.03;100.00;91963.09;5089882;28;20007;-38
2023/04/04 00:56:54;;;;;;;;;;;;;;;7.01;100.00;91971.16;5089726;28;19932;-38
2023/04/04 00:59:20;;;;;;;;;;;;;;;6.95;100.00;91969.94;5089775;28;19941;-38
2023/04/04 01:01:46;;;;;;;;;;;;;;;6.96;100.00;91974.13;5089473;28;20026;-38
2023/04/04 01:04:12;;;;;;;;;;;;;;;7.03;100.00;91971.31;5088751;28;19942;-38
2023/04/04 01:06:37;;;;;;;;;;;;;;;6.99;100.00;91970.25;5089993;28;19937;-38
2023/04/04 01:09:03;;;;;;;;;;;;;;;7.07;100.00;91968.91;5089918;28;20487;-37
2023/04/04 01:11:28;;;;;;;;;;;;;;;6.96;100.00;91960.41;5088611;28;20738;-38
2023/04/04 01:13:53;;;;;;;;;;;;;;;6.91;100.00;91953.84;5089497;28;20420;-38
2023/04/04 01:16:19;;;;;;;;;;;;;;;6.95;100.00;91956.22;5088312;28;20058;-38
2023/04/04 01:18:44;;;;;;;;;;;;;;;6.94;100.00;91941.75;5088485;28;20339;-38
2023/04/04 01:21:10;;;;;;;;;;;;;;;7.02;100.00;91950.66;5088268;28;19938;-38
2023/04/04 01:23:40;;;;;;;;;;;;;;;6.88;100.00;91944.00;5073207;28;19957;-38
2023/04/04 01:26:06;;;;;;;;;;;;;;;6.97;100.00;91946.13;5068373;28;20610;-38
2023/04/04 01:28:32;;;;;;;;;;;;;;;6.97;100.00;91954.38;5069396;28;19946;-38
2023/04/04 01:30:58;;;;;;;;;;;;;;;7.00;100.00;91950.47;5068947;28;20529;-37
2023/04/04 01:33:28;;;;;;;;;;;;;;;6.95;100.00;91954.22;5087858;28;20025;-38
2023/04/04 01:35:59;;;;;;;;;;;;;;;6.95;100.00;91937.75;5088553;28;19933;-38
2023/04/04 01:38:43;;;;;;;;;;;;;;;7.13;100.00;91935.72;5078533;28;19944;-38
2023/04/04 01:41:10;;;;;;;;;;;;;;;6.96;100.00;91939.19;5069315;28;19935;-38
2023/04/04 01:43:36;;;;;;;;;;;;;;;6.98;100.00;91942.09;5068804;28;20389;-38
2023/04/04 01:46:01;;;;;;;;;;;;;;;7.12;100.00;91945.28;5068983;28;19934;-38
2023/04/04 01:48:27;;;;;;;;;;;;;;;7.07;100.00;91946.97;5067533;28;20016;-38
2023/04/04 01:50:52;;;;;;;;;;;;;;;7.05;100.00;91930.31;5068675;28;19937;-38
2023/04/04 01:53:18;;;;;;;;;;;;;;;6.96;100.00;91922.72;5069012;28;19939;-38
2023/04/04 01:55:43;;;;;;;;;;;;;;;6.97;100.00;91924.19;5076854;28;19934;-38
2023/04/04 01:58:09;;;;;;;;;;;;;;;7.05;100.00;91922.09;5089000;28;20411;-38
2023/04/04 02:00:34;;;;;;;;;;;;;;;7.02;100.00;91922.50;5088618;28;19964;-38
2023/04/04 02:03:00;;;;;;;;;;;;;;;7.02;100.00;91931.44;5088754;28;19998;-38
2023/04/04 02:05:26;;;;;;;;;;;;;;;7.16;100.00;91926.38;5088786;28;20051;-38
2023/04/04 02:07:51;;;;;;;;;;;;;;;7.21;100.00;91931.63;5088640;28;19942;-38
2023/04/04 02:10:16;;;;;;;;;;;;;;;7.31;100.00;91932.47;5088925;28;19932;-38
2023/04/04 02:12:42;;;;;;;;;;;;;;;7.24;100.00;91933.25;5088796;28;19936;-38
2023/04/04 02:15:07;;;;;;;;;;;;;;;7.08;100.00;91929.19;5088601;28;19935;-38
2023/04/04 02:17:33;;;;;;;;;;;;;;;7.32;100.00;91936.66;5088723;28;19935;-38
2023/04/04 02:19:58;;;;;;;;;;;;;;;7.23;100.00;91933.81;5071421;28;20346;-38
2023/04/04 02:22:24;;;;;;;;;;;;;;;7.18;100.00;91943.00;5068563;28;19952;-38
2023/04/04 02:24:49;;;;;;;;;;;;;;;7.13;100.00;91936.47;5068328;28;20378;-38
2023/04/04 02:27:14;;;;;;;;;;;;;;;7.13;100.00;91930.25;5068364;28;19932;-38
2023/04/04 02:29:40;;;;;;;;;;;;;;;7.14;100.00;91932.44;5068302;28;20336;-38
2023/04/04 02:32:05;;;;;;;;;;;;;;;7.22;100.00;91946.09;5068192;28;19943;-38
2023/04/04 02:34:31;;;;;;;;;;;;;;;7.19;100.00;91947.22;5080388;28;20495;-38
2023/04/04 02:36:56;;;;;;;;;;;;;;;7.15;100.00;91947.59;5088739;28;20005;-38
2023/04/04 02:39:21;;;;;;;;;;;;;;;7.15;100.00;91941.38;5088307;28;20417;-38
2023/04/04 02:41:47;;;;;;;;;;;;;;;7.22;100.00;91944.06;5088359;28;19941;-38
2023/04/04 02:44:12;;;;;;;;;;;;;;;7.16;100.00;91946.31;5088352;28;19928;-38
2023/04/04 02:46:37;;;;;;;;;;;;;;;7.21;100.00;91950.84;5088692;28;19931;-38
2023/04/04 02:49:03;;;;;;;;;;;;;;;7.26;100.00;91955.38;5088316;28;19932;-38
2023/04/04 02:51:28;;;;;;;;;;;;;;;7.18;100.00;91962.22;5088437;28;19937;-38
2023/04/04 02:53:53;;;;;;;;;;;;;;;7.45;100.00;91965.81;5088271;28;19934;-38
2023/04/04 02:56:19;;;;;;;;;;;;;;;7.31;100.00;91957.16;5088244;28;20026;-38
2023/04/04 02:58:44;;;;;;;;;;;;;;;7.28;100.00;91952.78;5088280;28;19986;-38
2023/04/04 03:01:10;;;;;;;;;;;;;;;7.30;100.00;91955.69;5090030;28;19967;-38
2023/04/04 03:03:35;;;;;;;;;;;;;;;7.39;100.00;91965.31;5091828;28;20102;-38
2023/04/04 03:06:00;;;;;;;;;;;;;;;7.40;100.00;91966.78;5091998;28;19940;-38
2023/04/04 03:08:26;;;;;;;;;;;;;;;7.44;100.00;91967.09;5091830;28;19935;-38
2023/04/04 03:10:52;;;;;;;;;;;;;;;7.32;100.00;91966.84;5091901;28;19942;-38
2023/04/04 03:13:17;;;;;;;;;;;;;;;7.43;100.00;91963.63;5092002;28;19928;-38
2023/04/04 03:15:42;;;;;;;;;;;;;;;7.33;100.00;91951.84;5078910;28;20642;-38
2023/04/04 03:18:07;;;;;;;;;;;;;;;7.33;100.00;91957.31;5071514;28;19942;-38
2023/04/04 03:20:33;;;;;;;;;;;;;;;7.25;100.00;91966.94;5070501;28;19990;-38
2023/04/04 03:22:58;;;;;;;;;;;;;;;7.10;100.00;91970.53;5071444;28;20000;-38
2023/04/04 03:25:23;;;;;;;;;;;;;;;7.16;100.00;91965.53;5071256;28;19932;-38
2023/04/04 03:27:49;;;;;;;;;;;;;;;7.10;100.00;91965.06;5071568;28;19966;-38
2023/04/04 03:30:14;;;;;;;;;;;;;;;7.12;100.00;91967.22;5071163;28;19968;-38
2023/04/04 03:32:39;;;;;;;;;;;;;;;7.04;100.00;91967.28;5071204;28;19938;-38
2023/04/04 03:35:08;;;;;;;;;;;;;;;7.13;100.00;91958.41;5088141;28;20450;-38
2023/04/04 03:37:33;;;;;;;;;;;;;;;7.18;100.00;91964.97;5091602;28;19933;-37
2023/04/04 03:39:58;;;;;;;;;;;;;;;7.10;100.00;91961.56;5091686;28;19966;-38
2023/04/04 03:42:25;;;;;;;;;;;;;;;7.16;100.00;91951.81;5091151;28;19966;-38
2023/04/04 03:44:52;;;;;;;;;;;;;;;7.17;100.00;91949.81;5091494;28;20311;-38
2023/04/04 03:47:17;;;;;;;;;;;;;;;7.23;100.00;91951.03;5091459;28;19934;-38
2023/04/04 03:49:42;;;;;;;;;;;;;;;7.30;100.00;91955.69;5091023;28;19945;-38
2023/04/04 03:52:08;;;;;;;;;;;;;;;7.21;100.00;91953.59;5091256;28;20026;-38
2023/04/04 03:54:33;;;;;;;;;;;;;;;7.08;100.00;91948.41;5091305;28;19987;-37
2023/04/04 03:56:58;;;;;;;;;;;;;;;7.05;100.00;91935.81;5091248;28;19947;-38
2023/04/04 03:59:24;;;;;;;;;;;;;;;7.13;100.00;91947.44;5091122;28;20400;-38
2023/04/04 04:01:49;;;;;;;;;;;;;;;7.06;100.00;91953.00;5090811;28;19970;-38
2023/04/04 04:04:14;;;;;;;;;;;;;;;7.15;100.00;91947.59;5090863;28;19936;-38
2023/04/04 04:06:40;;;;;;;;;;;;;;;7.11;100.00;91950.03;5090899;28;19971;-38
2023/04/04 04:09:05;;;;;;;;;;;;;;;7.04;100.00;91950.81;5090759;28;19939;-38
2023/04/04 04:11:30;;;;;;;;;;;;;;;7.00;100.00;91947.00;5081105;28;19945;-38
2023/04/04 04:13:55;;;;;;;;;;;;;;;6.96;100.00;91952.91;5070691;28;19987;-38
2023/04/04 04:16:21;;;;;;;;;;;;;;;7.03;100.00;91954.84;5070516;28;20033;-38
2023/04/04 04:18:47;;;;;;;;;;;;;;;7.09;100.00;91957.38;5070295;28;20310;-38
2023/04/04 04:21:12;;;;;;;;;;;;;;;7.03;100.00;91965.84;5070269;28;19977;-38
2023/04/04 04:23:37;;;;;;;;;;;;;;;7.02;100.00;91961.63;5070541;28;20008;-38
2023/04/04 04:26:03;;;;;;;;;;;;;;;7.03;100.00;91971.31;5070405;28;19937;-39
2023/04/04 04:28:29;;;;;;;;;;;;;;;7.09;100.00;91969.06;5070392;28;19981;-39
2023/04/04 04:30:54;;;;;;;;;;;;;;;7.14;100.00;91976.34;5069696;28;20376;-39
2023/04/04 04:33:19;;;;;;;;;;;;;;;7.19;100.00;91978.13;5069934;28;19939;-39
2023/04/04 04:35:45;;;;;;;;;;;;;;;7.15;100.00;91972.31;5070112;28;19929;-39
2023/04/04 04:38:10;;;;;;;;;;;;;;;7.22;100.00;91971.53;5070335;28;19941;-39
2023/04/04 04:40:36;;;;;;;;;;;;;;;7.22;100.00;91977.00;5069871;28;19977;-39
2023/04/04 04:43:01;;;;;;;;;;;;;;;7.24;100.00;91979.91;5070085;28;19960;-39
2023/04/04 04:45:27;;;;;;;;;;;;;;;7.25;100.00;91986.13;5070057;28;20344;-39
2023/04/04 04:47:52;;;;;;;;;;;;;;;7.31;100.00;91978.41;5069882;28;19938;-39
2023/04/04 04:50:17;;;;;;;;;;;;;;;7.31;100.00;91990.09;5068763;28;20003;-39
2023/04/04 04:52:43;;;;;;;;;;;;;;;7.43;100.00;91987.59;5070060;28;20430;-39
2023/04/04 04:55:08;;;;;;;;;;;;;;;7.47;100.00;91993.44;5072587;28;19934;-39
2023/04/04 04:57:35;;;;;;;;;;;;;;;7.40;100.00;91997.00;5090050;28;20598;-39
2023/04/04 05:00:00;;;;;;;;;;;;;;;7.47;100.00;91994.16;5088510;28;20004;-39
2023/04/04 05:02:26;;;;;;;;;;;;;;;7.62;100.00;91996.75;5089499;28;20016;-39
2023/04/04 05:04:52;;;;;;;;;;;;;;;7.65;100.00;91992.88;5089662;28;19930;-39
2023/04/04 05:07:17;;;;;;;;;;;;;;;7.63;100.00;91994.75;5084380;28;19945;-39
2023/04/04 05:09:42;;;;;;;;;;;;;;;7.72;100.00;91994.09;5069353;28;19944;-39
2023/04/04 05:12:07;;;;;;;;;;;;;;;7.81;100.00;92001.69;5069698;28;19943;-39
2023/04/04 05:14:33;;;;;;;;;;;;;;;7.90;100.00;92003.06;5069381;28;20472;-39
2023/04/04 05:16:58;;;;;;;;;;;;;;;7.85;100.00;91999.28;5069697;28;19943;-39
2023/04/04 05:19:23;;;;;;;;;;;;;;;7.75;100.00;92003.97;5069208;28;20431;-39
2023/04/04 05:21:49;;;;;;;;;;;;;;;7.86;100.00;92002.75;5069521;28;19990;-39
2023/04/04 05:24:16;;;;;;;;;;;;;;;7.80;100.00;92010.50;5068723;28;19958;-39
2023/04/04 05:26:42;;;;;;;;;;;;;;;8.04;100.00;92012.44;5069396;28;19939;-39
2023/04/04 05:29:07;;;;;;;;;;;;;;;7.87;100.00;92009.69;5069541;28;19938;-39
2023/04/04 05:31:33;;;;;;;;;;;;;;;7.96;100.00;92011.78;5068610;28;20380;-39
2023/04/04 05:33:59;;;;;;;;;;;;;;;7.98;100.00;92018.19;5076900;28;19933;-39
2023/04/04 05:36:24;;;;;;;;;;;;;;;7.86;100.00;92019.94;5089352;28;19934;-39
2023/04/04 05:38:49;;;;;;;;;;;;;;;7.83;100.00;92020.38;5089470;28;19932;-39
2023/04/04 05:41:15;;;;;;;;;;;;;;;7.88;100.00;92022.16;5089431;28;19937;-39
2023/04/04 05:43:40;;;;;;;;;;;;;;;7.96;100.00;92014.53;5071963;28;20430;-39
2023/04/04 05:46:06;;;;;;;;;;;;;;;7.77;100.00;92014.38;5068865;28;19928;-39
2023/04/04 05:48:31;;;;;;;;;;;;;;;7.81;100.00;92014.72;5069154;28;19933;-39
2023/04/04 05:50:56;;;;;;;;;;;;;;;7.92;100.00;92019.72;5068651;28;19929;-38
2023/04/04 05:53:21;;;;;;;;;;;;;;;7.93;100.00;92015.66;5068677;28;19938;-38
2023/04/04 05:55:53;;;;;;;;;;;;;;;7.69;100.00;92011.00;5076981;28;19978;-39
2023/04/04 05:58:18;;;;;;;;;;;;;;;7.64;100.00;92009.94;5088889;28;20036;-39
2023/04/04 06:00:44;;;;;;;;;;;;;;;7.62;100.00;92018.03;5080791;28;20050;-38
2023/04/04 06:03:09;;;;;;;;;;;;;;;7.80;100.00;92015.97;5068192;28;19956;-36
2023/04/04 06:05:34;;;;;;;;;;;;;;;7.77;100.00;92022.63;5068780;28;19943;-39
2023/04/04 06:08:00;;;;;;;;;;;;;;;7.75;100.00;92019.72;5068439;28;19933;-39
2023/04/04 06:10:25;;;;;;;;;;;;;;;7.79;100.00;92020.03;5067980;28;19954;-39
2023/04/04 06:12:50;;;;;;;;;;;;;;;7.91;100.00;92024.47;5068284;28;19942;-39
2023/04/04 06:15:16;;;;;;;;;;;;;;;8.02;100.00;92031.50;5068096;28;19930;-39
2023/04/04 06:17:41;;;;;;;;;;;;;;;7.98;100.00;92029.19;5068362;28;19930;-39
2023/04/04 06:20:07;;;;;;;;;;;;;;;7.93;100.00;92030.13;5067937;28;19934;-39
2023/04/04 06:22:33;;;;;;;;;;;;;;;7.88;100.00;92033.13;5067963;28;19954;-39
2023/04/04 06:24:59;;;;;;;;;;;;;;;7.87;100.00;92042.66;5068030;28;19930;-39
2023/04/04 06:27:24;;;;;;;;;;;;;;;8.08;100.00;92048.47;5068353;28;19930;-39
2023/04/04 06:29:49;;;;;;;;;;;;;;;8.16;100.00;92051.91;5068676;28;20061;-39
2023/04/04 06:32:15;;;;;;;;;;;;;;;8.17;100.00;92054.06;5068071;28;19933;-39
2023/04/04 06:34:40;;;;;;;;;;;;;;;8.00;100.00;92050.59;5075084;28;20015;-39
2023/04/04 06:37:05;;;;;;;;;;;;;;;7.97;100.00;92051.75;5072534;28;19987;-39
2023/04/04 06:39:33;;;;;;;;;;;;;;;8.03;100.00;92054.97;5072526;28;19980;-39
2023/04/04 06:41:58;;;;;;;;;;;;;;;8.14;100.00;92057.94;5072375;28;19936;-39
2023/04/04 06:44:23;;;;;;;;;;;;;;;7.92;100.00;92058.19;5072432;28;20589;-39
2023/04/04 06:46:49;;;;;;;;;;;;;;;7.94;100.00;92064.59;5072177;28;20028;-39
2023/04/04 06:49:15;;;;;;;;;;;;;;;8.20;100.00;92068.72;5104569;28;19986;-39
2023/04/04 06:51:40;;;;;;;;;;;;;;;8.23;100.00;92073.06;5071866;28;19934;-39
2023/04/04 06:54:06;;;;;;;;;;;;;;;8.14;100.00;92073.72;5071939;28;19938;-39
2023/04/04 06:56:31;;;;;;;;;;;;;;;8.39;100.00;92083.38;5119500;27;19990;-39
2023/04/04 06:58:56;;;;;;;;;;;;;;;8.24;100.00;92080.03;5092301;28;20005;-39
2023/04/04 07:01:21;;;;;;;;;;;;;;;8.31;100.00;92085.47;5073439;28;19961;-39
2023/04/04 07:03:48;;;;;;;;;;;;;;;8.28;100.00;92088.63;5072055;28;19996;-39
2023/04/04 07:06:13;;;;;;;;;;;;;;;8.29;100.00;92090.09;5071716;28;20438;-39
2023/04/04 07:08:38;;;;;;;;;;;;;;;8.10;100.00;92092.66;5072083;28;19938;-39
2023/04/04 07:11:04;;;;;;;;;;;;;;;8.21;100.00;92101.13;5071700;28;19960;-39
2023/04/04 07:13:29;;;;;;;;;;;;;;;8.20;100.00;92094.19;5071801;28;20028;-39
2023/04/04 07:15:54;;;;;;;;;;;;;;;8.17;100.00;92100.81;5071420;28;19941;-39
2023/04/04 07:18:20;;;;;;;;;;;;;;;8.23;100.00;92104.03;5070806;28;19969;-39
2023/04/04 07:20:46;;;;;;;;;;;;;;;8.27;100.00;92100.94;5079910;28;19941;-39
2023/04/04 07:23:11;;;;;;;;;;;;;;;8.43;100.00;92112.47;5083058;28;20065;-39
2023/04/04 07:25:37;;;;;;;;;;;;;;;8.39;100.00;92112.88;5083231;28;20436;-39
2023/04/04 07:28:02;;;;;;;;;;;;;;;8.31;100.00;92107.47;5076433;28;19957;-39
2023/04/04 07:30:29;;;;;;;;;;;;;;;8.18;100.00;92113.28;5076152;28;19943;-39
2023/04/04 07:33:00;;;;;;;;;;;;;;;8.05;99.07;92107.34;5078741;28;19934;-39
2023/04/04 07:35:25;;;;;;;;;;;;;;;7.72;100.00;92114.97;5080533;28;19936;-39
2023/04/04 07:37:51;;;;;;;;;;;;;;;7.64;100.00;92109.53;5088926;28;20329;-39
2023/04/04 07:40:16;;;;;;;;;;;;;;;7.23;100.00;92112.97;5076905;28;20420;-39
2023/04/04 07:42:42;;;;;;;;;;;;;;;7.24;100.00;92114.41;5083223;28;19960;-39
2023/04/04 07:45:08;;;;;;;;;;;;;;;7.20;100.00;92116.09;5082218;28;19933;-39
2023/04/04 07:47:33;;;;;;;;;;;;;;;7.14;100.00;92121.09;5075242;28;19940;-39
2023/04/04 07:49:58;;;;;;;;;;;;;;;7.22;100.00;92116.25;5077110;28;19943;-39
2023/04/04 07:52:23;;;;;;;;;;;;;;;7.18;100.00;92121.41;5082879;28;19947;-39
2023/04/04 07:54:49;;;;;;;;;;;;;;;7.30;100.00;92123.16;5081717;28;20565;-39
2023/04/04 07:57:14;;;;;;;;;;;;;;;7.48;100.00;92124.69;5079579;28;19951;-39
2023/04/04 07:59:40;;;;;;;;;;;;;;;7.46;100.00;92121.78;5077102;28;20004;-39
2023/04/04 08:02:05;;;;;;;;;;;;;;;7.49;100.00;92125.44;5080010;28;19960;-39
2023/04/04 08:04:30;;;;;;;;;;;;;;;7.50;98.63;92124.13;5077511;28;19952;-39
2023/04/04 08:06:56;;;;;;;;;;;;;;;7.42;96.80;92128.94;5072528;28;19996;-39
2023/04/04 08:09:21;;;;;;;;;;;;;;;7.41;97.10;92133.69;5080928;28;20407;-39
2023/04/04 08:11:46;;;;;;;;;;;;;;;7.39;96.48;92144.53;5072358;28;19947;-39
2023/04/04 08:14:12;;;;;;;;;;;;;;;7.24;96.80;92133.63;5069815;28;20315;-39
2023/04/04 08:16:37;;;;;;;;;;;;;;;7.33;95.51;92132.31;5069507;28;19992;-39
2023/04/04 08:19:03;;;;;;;;;;;;;;;7.25;96.74;92135.09;5070206;28;19934;-39
2023/04/04 08:21:28;;;;;;;;;;;;;;;7.23;96.14;92142.44;5070394;28;19932;-39
2023/04/04 08:23:54;;;;;;;;;;;;;;;7.13;96.95;92139.56;5070313;28;20681;-39
2023/04/04 08:26:20;;;;;;;;;;;;;;;7.30;95.18;92153.34;5069985;28;19963;-39
2023/04/04 08:28:46;;;;;;;;;;;;;;;7.17;96.72;92153.63;5069767;28;19937;-39
2023/04/04 08:31:11;;;;;;;;;;;;;;;7.18;98.38;92162.59;5070192;28;19933;-39
2023/04/04 08:33:37;;;;;;;;;;;;;;;7.20;97.60;92171.00;5070475;28;20022;-39
2023/04/04 08:36:03;;;;;;;;;;;;;;;7.09;98.19;92176.91;5069972;28;19929;-39
2023/04/04 08:38:28;;;;;;;;;;;;;;;7.20;97.12;92190.94;5069848;28;20397;-39
2023/04/04 08:40:54;;;;;;;;;;;;;;;7.38;95.38;92192.50;5070209;28;19989;-39
2023/04/04 08:43:19;;;;;;;;;;;;;;;7.43;95.05;92191.53;5069947;28;19962;-39
2023/04/04 08:45:44;;;;;;;;;;;;;;;7.15;97.33;92202.84;5069418;28;19952;-39
2023/04/04 08:48:11;;;;;;;;;;;;;;;6.83;98.40;92211.78;5069918;28;19970;-39
2023/04/04 08:50:36;;;;;;;;;;;;;;;6.86;98.93;92209.94;5069868;28;19931;-39
2023/04/04 08:53:03;;;;;;;;;;;;;;;6.88;97.89;92215.63;5068681;28;19946;-39
2023/04/04 08:55:28;;;;;;;;;;;;;;;6.81;95.15;92219.09;5068913;28;19936;-39
2023/04/04 08:57:54;;;;;;;;;;;;;;;6.86;95.50;92218.19;5068524;28;20503;-39
2023/04/04 09:00:21;;;;;;;;;;;;;;;6.97;96.97;92223.25;5069937;28;20034;-39
2023/04/04 09:03:02;;;;;;;;;;;;;;;7.09;95.46;92220.81;5069822;28;19948;-39
2023/04/04 09:05:27;;;;;;;;;;;;;;;6.96;93.08;92230.03;5070044;28;19936;-39
2023/04/04 09:07:53;;;;;;;;;;;;;;;6.93;95.04;92222.88;5068250;28;19998;-39
2023/04/04 09:10:19;;;;;;;;;;;;;;;6.66;95.28;92236.34;5069915;28;19933;-39
2023/04/04 09:12:46;;;;;;;;;;;;;;;6.74;95.17;92239.06;5069816;28;19934;-39
2023/04/04 09:15:12;;;;;;;;;;;;;;;6.75;94.30;92243.28;5068737;28;20053;-39
2023/04/04 09:17:37;;;;;;;;;;;;;;;6.87;93.84;92244.31;5068885;28;19936;-39
2023/04/04 09:20:03;;;;;;;;;;;;;;;6.86;93.47;92243.59;5069339;28;19931;-39
2023/04/04 09:22:29;;;;;;;;;;;;;;;6.88;94.66;92245.78;5068916;28;19948;-39
2023/04/04 09:24:54;;;;;;;;;;;;;;;6.82;93.77;92251.47;5069643;28;19934;-39
2023/04/04 09:27:20;;;;;;;;;;;;;;;6.87;93.83;92252.53;5067684;28;19930;-39
2023/04/04 09:29:46;;;;;;;;;;;;;;;6.69;92.89;92257.16;5068216;28;19934;-39
2023/04/04 09:32:14;;;;;;;;;;;;;;;6.38;93.40;92260.53;5078872;28;20001;-39
2023/04/04 09:34:40;;;;;;;;;;;;;;;6.08;92.14;92264.75;5089581;28;20688;-39
2023/04/04 09:37:05;;;;;;;;;;;;;;;6.10;93.52;92264.19;5088090;28;19935;-39
2023/04/04 09:39:31;;;;;;;;;;;;;;;6.00;95.08;92263.28;5089348;28;19931;-39
2023/04/04 09:41:57;;;;;;;;;;;;;;;6.44;95.00;92263.81;5088096;28;19935;-39
2023/04/04 09:44:22;;;;;;;;;;;;;;;6.57;94.60;92263.59;5089125;28;19937;-39
2023/04/04 09:46:50;;;;;;;;;;;;;;;6.56;96.19;92273.13;5088280;28;19938;-39
2023/04/04 09:49:20;;;;;;;;;;;;;;;6.74;93.45;92266.47;5078074;28;19940;-39
2023/04/04 09:51:51;;;;;;;;;;;;;;;6.36;93.68;92269.31;5068878;28;20481;-39
2023/04/04 09:54:20;;;;;;;;;;;;;;;6.67;92.90;92267.25;5068766;28;19936;-39
2023/04/04 09:56:46;;;;;;;;;;;;;;;6.81;93.58;92263.00;5069112;28;19942;-39
2023/04/04 09:59:11;;;;;;;;;;;;;;;6.96;94.99;92265.69;5069327;28;19936;-39
2023/04/04 10:01:37;;;;;;;;;;;;;;;6.95;93.61;92263.50;5067376;28;19963;-39
2023/04/04 10:04:02;;;;;;;;;;;;;;;6.97;93.17;92264.41;5067702;28;19955;-39
2023/04/04 10:06:28;;;;;;;;;;;;;;;7.57;91.39;92261.41;5069257;28;19998;-39
2023/04/04 10:08:54;;;;;;;;;;;;;;;7.86;87.09;92267.25;5067494;28;19931;-39
2023/04/04 10:11:27;;;;;;;;;;;;;;;7.97;86.83;92266.81;5067817;28;20391;-40
2023/04/04 10:13:52;;;;;;;;;;;;;;;8.32;85.92;92268.41;5068683;28;19935;-39
2023/04/04 10:16:18;;;;;;;;;;;;;;;8.51;86.27;92270.63;5069296;28;19930;-39
2023/04/04 10:18:43;;;;;;;;;;;;;;;8.66;86.47;92270.50;5068824;28;20011;-39
2023/04/04 10:21:08;;;;;;;;;;;;;;;9.12;82.05;92273.50;5067724;28;20008;-39
2023/04/04 10:23:34;;;;;;;;;;;;;;;8.80;82.48;92270.91;5068594;28;20414;-39
2023/04/04 10:25:59;;;;;;;;;;;;;;;8.60;82.91;92272.75;5069096;28;20501;-39
2023/04/04 10:28:25;;;;;;;;;;;;;;;9.05;84.37;92277.78;5068182;28;19962;-39
2023/04/04 10:31:00;;;;;;;;;;;;;;;9.31;78.90;92287.44;5068241;28;19969;-39
2023/04/04 10:33:30;;;;;;;;;;;;;;;9.50;78.82;92276.56;5072180;28;19929;-39
2023/04/04 10:35:56;;;;;;;;;;;;;;;9.55;78.40;92281.06;5070192;28;19967;-39
2023/04/04 10:38:23;;;;;;;;;;;;;;;9.21;81.07;92285.88;5068106;28;20029;-39
2023/04/04 10:40:48;;;;;;;;;;;;;;;9.02;81.84;92275.47;5074985;28;19934;-39
2023/04/04 10:43:13;;;;;;;;;;;;;;;9.04;81.49;92284.63;5075624;28;20478;-39
2023/04/04 10:45:41;;;;;;;;;;;;;;;9.22;80.50;92287.34;5070865;28;20027;-39
2023/04/04 10:48:07;;;;;;;;;;;;;;;9.13;81.08;92283.97;5067907;28;19939;-39
2023/04/04 10:50:33;;;;;;;;;;;;;;;8.88;80.82;92288.81;5098051;28;19946;-39
2023/04/04 10:53:00;;;;;;;;;;;;;;;8.69;82.77;92287.88;5094088;28;19986;-39
2023/04/04 10:55:26;;;;;;;;;;;;;;;8.67;83.02;92282.97;5067584;28;19941;-39
2023/04/04 10:57:53;;;;;;;;;;;;;;;8.59;82.26;92284.31;5066475;28;19934;-39
2023/04/04 11:00:22;;;;;;;;;;;;;;;8.65;81.12;92288.31;5075475;28;19932;-40
2023/04/04 11:02:49;;;;;;;;;;;;;;;8.43;80.11;92291.97;5084655;28;19951;-39
2023/04/04 11:05:18;;;;;;;;;;;;;;;7.92;84.54;92291.78;5076744;28;20018;-39
2023/04/04 11:07:44;;;;;;;;;;;;;;;7.95;82.36;92302.38;5077701;28;20029;-39
2023/04/04 11:10:20;;;;;;;;;;;;;;;7.61;85.92;92286.47;5075846;28;20483;-39
2023/04/04 11:12:46;;;;;;;;;;;;;;;7.71;84.30;92305.09;5075057;28;19929;-39
2023/04/04 11:15:15;;;;;;;;;;;;;;;7.40;86.84;92297.00;5075150;28;19932;-39
2023/04/04 11:17:41;;;;;;;;;;;;;;;7.48;87.50;92302.44;5077151;28;19940;-39
2023/04/04 11:20:07;;;;;;;;;;;;;;;7.26;88.08;92300.53;5075160;28;20541;-39
2023/04/04 11:22:35;;;;;;;;;;;;;;;7.11;89.66;92304.06;5073292;28;20042;-39
2023/04/04 11:25:08;;;;;;;;;;;;;;;7.33;89.12;92302.53;5084977;28;20001;-39
2023/04/04 11:27:33;;;;;;;;;;;;;;;7.31;90.06;92300.34;5073778;28;20316;-39
2023/04/04 11:29:58;;;;;;;;;;;;;;;7.52;90.04;92294.56;5082034;28;19985;-39
2023/04/04 11:32:46;;;;;;;;;;;;;;;7.62;88.11;92300.94;5078179;28;19965;-39
2023/04/04 11:35:11;;;;;;;;;;;;;;;7.67;87.27;92296.53;5076003;28;19931;-39
2023/04/04 11:38:03;;;;;;;;;;;;;;;7.43;89.08;92295.88;5080075;28;20486;-39
2023/04/04 11:40:40;;;;;;;;;;;;;;;7.57;87.56;92296.38;5074252;28;19935;-39
2023/04/04 11:43:06;;;;;;;;;;;;;;;7.48;85.90;92305.94;5072286;28;20732;-39
2023/04/04 11:45:31;;;;;;;;;;;;;;;7.58;86.89;92295.81;5070927;28;19932;-39
2023/04/04 11:47:57;;;;;;;;;;;;;;;7.58;88.10;92298.56;5069939;28;19931;-39
2023/04/04 11:50:22;;;;;;;;;;;;;;;7.57;90.48;92299.84;5069990;28;20510;-39
2023/04/04 11:52:48;;;;;;;;;;;;;;;7.75;89.46;92297.19;5070634;28;20468;-39
2023/04/04 11:55:15;;;;;;;;;;;;;;;7.89;86.45;92304.63;5071273;28;20354;-39
2023/04/04 11:57:41;;;;;;;;;;;;;;;7.84;87.67;92302.09;5071065;28;19932;-39
2023/04/04 12:00:07;;;;;;;;;;;;;;;7.96;86.69;92300.34;5071190;28;19937;-39
2023/04/04 12:02:33;;;;;;;;;;;;;;;8.33;84.99;92305.63;5070711;28;20017;-39
2023/04/04 12:04:59;;;;;;;;;;;;;;;8.13;84.52;92300.44;5070769;28;19932;-39
2023/04/04 12:07:25;;;;;;;;;;;;;;;8.05;86.99;92314.25;5070920;28;19940;-39
2023/04/04 12:09:51;;;;;;;;;;;;;;;8.16;85.16;92310.31;5071071;28;20307;-39
2023/04/04 12:12:16;;;;;;;;;;;;;;;8.18;85.64;92313.97;5069481;28;19995;-39
2023/04/04 12:14:41;;;;;;;;;;;;;;;8.14;86.92;92319.09;5070812;28;19942;-39
2023/04/04 12:17:07;;;;;;;;;;;;;;;8.23;83.09;92304.75;5070914;28;20031;-39
2023/04/04 12:19:35;;;;;;;;;;;;;;;8.15;86.91;92308.84;5070743;28;19945;-39
2023/04/04 12:22:00;;;;;;;;;;;;;;;8.20;85.02;92308.63;5070682;28;19978;-39
2023/04/04 12:24:25;;;;;;;;;;;;;;;7.88;88.13;92319.66;5070657;28;20483;-39
2023/04/04 12:26:51;;;;;;;;;;;;;;;8.18;85.40;92313.97;5075341;28;20017;-39
2023/04/04 12:29:17;;;;;;;;;;;;;;;8.07;84.24;92319.91;5083100;28;19948;-39
2023/04/04 12:31:43;;;;;;;;;;;;;;;7.95;85.95;92320.91;5076324;28;20022;-38
2023/04/04 12:34:16;;;;;;;;;;;;;;;7.75;87.26;92319.91;5075075;28;19930;-39
2023/04/04 12:36:42;;;;;;;;;;;;;;;7.54;85.41;92316.69;5082138;28;19944;-39
2023/04/04 12:39:08;;;;;;;;;;;;;;;7.44;85.31;92315.84;5073237;28;20427;-38
2023/04/04 12:41:34;;;;;;;;;;;;;;;7.21;87.10;92317.94;5075895;28;19973;-38
2023/04/04 12:44:03;;;;;;;;;;;;;;;7.40;88.41;92321.72;5072912;28;20058;-39